createdAt,value
2018-06-19T00:01:13.070Z,6.77
2018-06-19T00:03:42.561Z,6.67
2018-06-19T00:06:11.089Z,6.27
2018-06-19T00:08:39.664Z,6.73
2018-06-19T00:11:08.958Z,6.43
2018-06-19T00:13:37.407Z,6.67
2018-06-19T00:16:05.923Z,7.20
2018-06-19T00:18:36.847Z,6.63
2018-06-19T00:21:11.001Z,6.83
2018-06-19T00:23:39.615Z,6.63
2018-06-19T00:26:08.095Z,6.87
2018-06-19T00:28:39.288Z,6.50
2018-06-19T00:31:07.739Z,6.93
2018-06-19T00:33:36.244Z,7.47
2018-06-19T00:36:04.935Z,6.97
2018-06-19T00:38:33.412Z,7.47
2018-06-19T00:41:01.891Z,6.60
2018-06-19T00:43:30.366Z,7.23
2018-06-19T00:45:59.624Z,7.57
2018-06-19T00:48:28.062Z,7.57
2018-06-19T00:50:56.463Z,7.33
2018-06-19T00:53:24.873Z,8.43
2018-06-19T00:55:53.301Z,8.00
2018-06-19T00:58:21.741Z,8.63
2018-06-19T01:00:50.145Z,8.00
2018-06-19T01:03:18.693Z,8.97
2018-06-19T01:05:47.209Z,8.93
2018-06-19T01:08:15.671Z,8.90
2018-06-19T01:10:44.133Z,8.63
2018-06-19T01:13:12.592Z,8.20
2018-06-19T01:15:41.007Z,8.93
2018-06-19T01:18:09.476Z,8.40
2018-06-19T01:20:37.925Z,8.23
2018-06-19T01:23:06.333Z,8.17
2018-06-19T01:25:34.708Z,8.10
2018-06-19T01:28:03.114Z,8.10
2018-06-19T01:30:31.546Z,8.57
2018-06-19T01:32:59.996Z,9.00
2018-06-19T01:35:28.476Z,8.73
2018-06-19T01:37:56.936Z,9.00
2018-06-19T01:40:25.437Z,9.13
2018-06-19T01:42:53.880Z,8.73
2018-06-19T01:45:22.360Z,9.77
2018-06-19T01:47:50.765Z,9.50
2018-06-19T01:50:19.260Z,8.77
2018-06-19T01:52:47.714Z,9.33
2018-06-19T01:55:16.120Z,8.80
2018-06-19T01:57:44.653Z,8.67
2018-06-19T02:00:13.039Z,8.30
2018-06-19T02:02:41.496Z,9.33
2018-06-19T02:05:09.906Z,9.07
2018-06-19T02:07:38.303Z,9.43
2018-06-19T02:10:06.730Z,9.03
2018-06-19T02:12:35.216Z,9.17
2018-06-19T02:15:03.644Z,9.37
2018-06-19T02:17:32.141Z,9.47
2018-06-19T02:20:00.602Z,9.00
2018-06-19T02:22:29.049Z,9.20
2018-06-19T02:24:57.514Z,9.93
2018-06-19T02:27:26.016Z,9.13
2018-06-19T02:29:54.428Z,9.07
2018-06-19T02:32:22.971Z,9.23
2018-06-19T02:34:51.393Z,9.00
2018-06-19T02:37:19.893Z,9.07
2018-06-19T02:39:48.313Z,10.27
2018-06-19T02:42:16.724Z,9.10
2018-06-19T02:44:45.140Z,9.80
2018-06-19T02:47:13.514Z,9.33
2018-06-19T02:49:42.004Z,8.60
2018-06-19T02:52:10.575Z,9.63
2018-06-19T02:54:39.030Z,9.40
2018-06-19T02:57:07.608Z,8.83
2018-06-19T02:59:36.056Z,8.97
2018-06-19T03:02:04.510Z,9.47
2018-06-19T03:04:32.947Z,9.17
2018-06-19T03:07:01.368Z,9.73
2018-06-19T03:09:29.785Z,9.23
2018-06-19T03:11:58.256Z,10.00
2018-06-19T03:14:26.740Z,8.73
2018-06-19T03:16:55.168Z,9.70
2018-06-19T03:19:23.670Z,9.73
2018-06-19T03:21:52.072Z,9.73
2018-06-19T03:24:20.589Z,8.93
2018-06-19T03:26:49.013Z,9.23
2018-06-19T03:29:17.475Z,8.87
2018-06-19T03:31:45.868Z,9.23
2018-06-19T03:34:14.419Z,9.60
2018-06-19T03:36:43.000Z,10.47
2018-06-19T03:39:12.248Z,9.50
2018-06-19T03:41:41.269Z,10.07
2018-06-19T03:44:09.943Z,9.60
2018-06-19T03:46:38.457Z,9.37
2018-06-19T03:49:06.974Z,9.50
2018-06-19T03:51:35.422Z,9.47
2018-06-19T03:54:03.839Z,10.00
2018-06-19T03:56:32.250Z,9.77
2018-06-19T03:59:00.655Z,10.23
2018-06-19T04:01:29.188Z,9.77
2018-06-19T04:03:57.662Z,10.13
2018-06-19T04:06:30.304Z,10.13
2018-06-19T04:08:58.841Z,10.53
2018-06-19T04:11:27.355Z,10.87
2018-06-19T04:13:56.061Z,9.43
2018-06-19T04:16:24.484Z,9.67
2018-06-19T04:18:53.242Z,9.30
2018-06-19T04:21:21.755Z,10.00
2018-06-19T04:23:50.437Z,9.73
2018-06-19T04:26:18.864Z,9.87
2018-06-19T04:28:47.610Z,10.20
2018-06-19T04:31:16.928Z,10.07
2018-06-19T04:33:45.402Z,10.20
2018-06-19T04:36:13.864Z,9.67
2018-06-19T04:38:42.320Z,9.70
2018-06-19T04:41:10.730Z,10.20
2018-06-19T04:43:39.143Z,9.63
2018-06-19T04:46:07.570Z,10.53
2018-06-19T04:48:35.998Z,10.27
2018-06-19T04:51:04.473Z,10.10
2018-06-19T04:53:32.896Z,10.60
2018-06-19T04:56:01.336Z,10.57
2018-06-19T04:58:29.890Z,10.47
2018-06-19T05:00:58.522Z,9.47
2018-06-19T05:03:26.989Z,10.13
2018-06-19T05:05:55.536Z,10.50
2018-06-19T05:08:24.017Z,10.77
2018-06-19T05:10:52.506Z,10.13
2018-06-19T05:13:20.999Z,10.00
2018-06-19T05:15:49.596Z,9.87
2018-06-19T05:18:18.356Z,10.30
2018-06-19T05:20:46.802Z,10.17
2018-06-19T05:23:15.659Z,10.20
2018-06-19T05:25:44.210Z,10.37
2018-06-19T05:28:12.682Z,9.83
2018-06-19T05:30:41.340Z,9.93
2018-06-19T05:33:09.763Z,9.27
2018-06-19T05:35:38.176Z,10.27
2018-06-19T05:38:06.793Z,9.80
2018-06-19T05:40:35.398Z,9.70
2018-06-19T05:43:04.026Z,9.37
2018-06-19T05:45:33.472Z,10.20
2018-06-19T05:48:02.013Z,9.50
2018-06-19T05:50:30.512Z,9.43
2018-06-19T05:52:59.010Z,9.07
2018-06-19T05:55:27.446Z,9.30
2018-06-19T05:57:55.913Z,10.40
2018-06-19T06:00:24.417Z,10.73
2018-06-19T06:02:52.852Z,8.83
2018-06-19T06:05:21.292Z,9.10
2018-06-19T06:07:49.724Z,10.07
2018-06-19T06:10:17.864Z,9.57
2018-06-19T06:12:46.299Z,9.87
2018-06-19T06:15:14.764Z,9.07
2018-06-19T06:17:43.173Z,9.10
2018-06-19T06:20:11.833Z,9.23
2018-06-19T06:22:40.351Z,8.50
2018-06-19T06:25:08.751Z,8.90
2018-06-19T06:27:37.173Z,9.10
2018-06-19T06:30:05.599Z,8.53
2018-06-19T06:32:34.039Z,7.90
2018-06-19T06:35:02.550Z,7.73
2018-06-19T06:37:30.988Z,14.40
2018-06-19T06:39:59.458Z,7.10
2018-06-19T06:42:27.876Z,7.00
2018-06-19T06:44:56.334Z,6.37
2018-06-19T06:47:27.627Z,7.30
2018-06-19T06:49:56.046Z,6.83
2018-06-19T06:52:24.542Z,6.70
2018-06-19T06:54:53.127Z,6.60
2018-06-19T06:57:21.533Z,6.80
2018-06-19T06:59:49.983Z,7.33
2018-06-19T07:02:18.504Z,6.80
2018-06-19T07:04:47.012Z,6.57
2018-06-19T07:07:15.475Z,6.93
2018-06-19T07:09:44.574Z,5.90
2018-06-19T07:12:13.004Z,5.40
2018-06-19T07:14:41.495Z,5.80
2018-06-19T07:17:09.869Z,5.57
2018-06-19T07:19:38.318Z,5.53
2018-06-19T07:22:06.724Z,6.00
2018-06-19T07:24:35.268Z,5.67
2018-06-19T07:27:03.672Z,5.63
2018-06-19T07:29:32.091Z,5.20
2018-06-19T07:32:00.511Z,4.87
2018-06-19T07:34:28.921Z,4.33
2018-06-19T07:36:57.362Z,4.70
2018-06-19T07:39:25.795Z,4.27
2018-06-19T07:41:54.297Z,4.53
2018-06-19T07:44:22.912Z,4.57
2018-06-19T07:46:52.111Z,4.40
2018-06-19T07:49:20.784Z,4.20
2018-06-19T07:51:49.228Z,3.87
2018-06-19T07:54:17.688Z,4.10
2018-06-19T07:56:46.181Z,4.20
2018-06-19T07:59:14.627Z,3.60
2018-06-19T08:01:43.027Z,3.90
2018-06-19T08:04:11.442Z,3.60
2018-06-19T08:06:39.889Z,4.50
2018-06-19T08:09:09.691Z,3.53
2018-06-19T08:11:38.149Z,3.93
2018-06-19T08:14:06.686Z,3.57
2018-06-19T08:16:35.108Z,3.40
2018-06-19T08:19:03.314Z,3.50
2018-06-19T08:21:31.788Z,3.30
2018-06-19T08:24:00.555Z,2.70
2018-06-19T08:26:29.129Z,2.80
2018-06-19T08:28:57.640Z,2.50
2018-06-19T08:31:26.197Z,2.50
2018-06-19T08:33:54.587Z,2.50
2018-06-19T08:36:23.185Z,2.63
2018-06-19T08:38:51.541Z,2.70
2018-06-19T08:41:19.976Z,2.70
2018-06-19T08:43:48.564Z,2.27
2018-06-19T08:46:16.996Z,2.33
2018-06-19T08:48:45.389Z,2.57
2018-06-19T08:51:14.452Z,2.50
2018-06-19T08:53:42.989Z,2.50
2018-06-19T08:56:11.492Z,2.40
2018-06-19T08:58:40.035Z,2.00
2018-06-19T09:01:08.440Z,2.53
2018-06-19T09:03:37.242Z,2.60
2018-06-19T09:06:05.710Z,2.50
2018-06-19T09:08:34.320Z,2.60
2018-06-19T09:11:02.853Z,2.70
2018-06-19T09:13:31.299Z,2.50
2018-06-19T09:15:59.810Z,2.27
2018-06-19T09:18:28.411Z,2.77
2018-06-19T09:20:56.968Z,2.60
2018-06-19T09:23:25.445Z,2.70
2018-06-19T09:25:53.916Z,2.20
2018-06-19T09:28:22.387Z,2.40
2018-06-19T09:30:50.812Z,2.57
2018-06-19T09:33:19.347Z,2.93
2018-06-19T09:35:47.826Z,2.40
2018-06-19T09:38:16.297Z,2.40
2018-06-19T09:40:44.916Z,2.37
2018-06-19T09:43:13.724Z,2.20
2018-06-19T09:45:42.201Z,2.00
2018-06-19T09:48:10.719Z,2.30
2018-06-19T09:50:39.254Z,1.80
2018-06-19T09:53:07.721Z,1.93
2018-06-19T09:55:36.336Z,2.20
2018-06-19T09:58:11.417Z,2.00
2018-06-19T10:00:40.136Z,2.20
2018-06-19T10:03:08.682Z,2.10
2018-06-19T10:05:37.130Z,2.63
2018-06-19T10:08:05.539Z,2.40
2018-06-19T10:10:33.965Z,2.50
2018-06-19T10:13:02.445Z,2.77
2018-06-19T10:15:31.137Z,2.40
2018-06-19T10:17:59.592Z,2.50
2018-06-19T10:20:27.997Z,2.70
2018-06-19T10:22:56.426Z,2.50
2018-06-19T10:25:24.872Z,2.30
2018-06-19T10:27:53.381Z,2.10
2018-06-19T10:30:21.908Z,2.20
2018-06-19T10:32:50.389Z,2.00
2018-06-19T10:35:18.835Z,2.20
2018-06-19T10:37:47.228Z,2.47
2018-06-19T10:40:15.394Z,2.40
2018-06-19T10:42:43.831Z,2.10
2018-06-19T10:45:12.270Z,2.50
2018-06-19T10:47:40.697Z,2.40
2018-06-19T10:50:09.101Z,2.70
2018-06-19T10:52:37.591Z,2.80
2018-06-19T10:55:06.084Z,2.30
2018-06-19T10:57:34.610Z,2.70
2018-06-19T11:00:03.131Z,2.70
2018-06-19T11:02:31.564Z,2.30
2018-06-19T11:04:59.973Z,2.70
2018-06-19T11:07:28.477Z,2.73
2018-06-19T11:09:58.117Z,2.90
2018-06-19T11:12:26.997Z,3.20
2018-06-19T11:14:55.584Z,3.10
2018-06-19T11:17:24.075Z,3.30
2018-06-19T11:19:52.531Z,3.00
2018-06-19T11:22:20.932Z,3.10
2018-06-19T11:24:49.387Z,2.90
2018-06-19T11:27:17.810Z,3.00
2018-06-19T11:29:46.316Z,3.30
2018-06-19T11:32:14.750Z,2.93
2018-06-19T11:34:43.546Z,3.33
2018-06-19T11:37:12.008Z,3.40
2018-06-19T11:39:40.473Z,2.97
2018-06-19T11:42:08.972Z,3.27
2018-06-19T11:44:37.384Z,3.50
2018-06-19T11:47:05.856Z,3.40
2018-06-19T11:49:34.415Z,3.67
2018-06-19T11:52:02.933Z,3.07
2018-06-19T11:54:31.413Z,2.97
2018-06-19T11:56:59.826Z,3.60
2018-06-19T11:59:28.333Z,3.17
2018-06-19T12:01:56.799Z,3.23
2018-06-19T12:04:25.239Z,2.90
2018-06-19T12:06:53.744Z,2.93
2018-06-19T12:09:22.555Z,3.10
2018-06-19T12:11:51.049Z,3.30
2018-06-19T12:14:19.508Z,2.80
2018-06-19T12:16:48.017Z,2.77
2018-06-19T12:19:16.541Z,2.97
2018-06-19T12:21:45.002Z,2.60
2018-06-19T12:24:13.466Z,2.90
2018-06-19T12:26:41.933Z,2.67
2018-06-19T12:29:10.343Z,2.60
2018-06-19T12:31:38.822Z,3.00
2018-06-19T12:34:07.283Z,2.97
2018-06-19T12:36:35.727Z,2.80
2018-06-19T12:39:06.314Z,3.43
2018-06-19T12:41:45.959Z,3.40
2018-06-19T12:44:14.480Z,3.20
2018-06-19T12:46:43.334Z,2.73
2018-06-19T12:49:12.214Z,3.00
2018-06-19T12:51:57.547Z,3.00
2018-06-19T12:55:34.749Z,2.63
2018-06-19T12:58:03.206Z,2.47
2018-06-19T13:00:31.711Z,2.40
2018-06-19T13:03:11.641Z,2.10
2018-06-19T13:05:51.342Z,2.07
2018-06-19T13:08:19.836Z,2.40
2018-06-19T13:10:48.313Z,2.47
2018-06-19T13:13:30.189Z,1.83
2018-06-19T13:15:58.732Z,2.50
2018-06-19T13:18:40.070Z,2.03
2018-06-19T13:21:08.609Z,2.20
2018-06-19T13:23:37.239Z,2.23
2018-06-19T13:26:05.681Z,2.20
2018-06-19T13:29:56.792Z,2.63
2018-06-19T13:32:25.655Z,2.40
2018-06-19T13:34:54.147Z,2.70
2018-06-19T13:37:22.706Z,2.40
2018-06-19T13:41:01.993Z,2.20
2018-06-19T13:43:42.256Z,2.27
2018-06-19T13:46:11.603Z,2.47
2018-06-19T13:48:40.907Z,2.20
2018-06-19T13:51:09.838Z,2.73
2018-06-19T13:53:38.358Z,2.33
2018-06-19T13:57:19.278Z,2.60
2018-06-19T13:59:47.962Z,2.70
2018-06-19T14:02:16.868Z,2.50
2018-06-19T14:04:45.313Z,2.40
2018-06-19T14:07:13.610Z,2.43
2018-06-19T14:09:53.383Z,2.20
2018-06-19T14:13:09.265Z,2.30
2018-06-19T14:15:41.314Z,2.37
2018-06-19T14:18:10.458Z,2.60
2018-06-19T14:20:39.659Z,2.90
2018-06-19T14:23:08.171Z,2.23
2018-06-19T14:25:36.638Z,2.40
2018-06-19T14:28:05.198Z,2.40
2018-06-19T14:30:33.729Z,2.23
2018-06-19T14:33:01.974Z,2.40
2018-06-19T14:35:30.473Z,2.37
2018-06-19T14:37:59.163Z,1.97
2018-06-19T14:40:27.766Z,2.00
2018-06-19T14:42:56.249Z,2.07
2018-06-19T14:45:24.806Z,2.30
2018-06-19T14:47:53.347Z,2.33
2018-06-19T14:50:21.855Z,2.30
2018-06-19T14:52:50.336Z,2.60
2018-06-19T14:55:18.820Z,2.40
2018-06-19T14:57:47.237Z,2.70
2018-06-19T15:00:15.835Z,2.40
2018-06-19T15:02:44.324Z,2.43
2018-06-19T15:05:12.886Z,2.47
2018-06-19T15:07:47.600Z,2.20
2018-06-19T15:10:16.306Z,2.40
2018-06-19T15:12:44.740Z,2.23
2018-06-19T15:15:13.248Z,2.40
2018-06-19T15:17:41.744Z,2.37
2018-06-19T15:20:10.268Z,2.30
2018-06-19T15:22:38.790Z,2.40
2018-06-19T15:25:07.364Z,2.40
2018-06-19T15:27:35.982Z,2.27
2018-06-19T15:30:04.666Z,2.30
2018-06-19T15:32:33.114Z,2.60
2018-06-19T15:35:01.689Z,2.30
2018-06-19T15:37:30.213Z,2.37
2018-06-19T15:39:58.650Z,3.10
2018-06-19T15:42:27.119Z,3.33
2018-06-19T15:44:55.602Z,2.97
2018-06-19T15:47:24.112Z,2.77
2018-06-19T15:49:52.861Z,2.20
2018-06-19T15:52:21.465Z,2.43
2018-06-19T15:54:49.997Z,2.10
2018-06-19T15:57:18.442Z,2.00
2018-06-19T15:59:46.941Z,2.20
2018-06-19T16:02:15.428Z,2.17
2018-06-19T16:04:43.900Z,2.27
2018-06-19T16:07:12.359Z,2.60
2018-06-19T16:09:40.798Z,2.30
2018-06-19T16:12:09.286Z,2.50
2018-06-19T16:14:37.732Z,2.40
2018-06-19T16:17:06.243Z,2.37
2018-06-19T16:19:34.690Z,2.70
2018-06-19T16:22:03.134Z,2.60
2018-06-19T16:24:31.301Z,2.93
2018-06-19T16:26:59.482Z,3.23
2018-06-19T16:29:27.960Z,2.60
2018-06-19T16:31:56.420Z,2.67
2018-06-19T16:34:24.980Z,2.90
2018-06-19T16:36:53.521Z,2.80
2018-06-19T16:39:22.037Z,2.70
2018-06-19T16:41:50.583Z,2.40
2018-06-19T16:44:19.088Z,2.57
2018-06-19T16:46:47.596Z,2.70
2018-06-19T16:49:16.376Z,2.67
2018-06-19T16:51:44.842Z,2.73
2018-06-19T16:54:13.334Z,2.80
2018-06-19T16:56:41.860Z,2.40
2018-06-19T16:59:10.124Z,2.70
2018-06-19T17:01:38.671Z,2.53
2018-06-19T17:04:07.133Z,2.87
2018-06-19T17:06:36.111Z,2.97
2018-06-19T17:09:06.651Z,3.30
2018-06-19T17:11:35.066Z,3.57
2018-06-19T17:14:03.543Z,3.03
2018-06-19T17:16:32.110Z,3.20
2018-06-19T17:19:00.646Z,2.50
2018-06-19T17:21:29.338Z,2.70
2018-06-19T17:23:58.077Z,3.03
2018-06-19T17:26:26.566Z,3.00
2018-06-19T17:28:55.086Z,3.50
2018-06-19T17:31:23.567Z,2.87
2018-06-19T17:33:52.083Z,3.23
2018-06-19T17:36:20.566Z,3.00
2018-06-19T17:38:49.029Z,2.83
2018-06-19T17:41:17.550Z,3.30
2018-06-19T17:43:46.016Z,2.77
2018-06-19T17:46:14.459Z,2.67
2018-06-19T17:48:42.921Z,2.80
2018-06-19T17:51:11.446Z,3.60
2018-06-19T17:53:39.873Z,4.80
2018-06-19T17:56:08.724Z,2.80
2018-06-19T17:58:37.268Z,3.00
2018-06-19T18:01:06.021Z,2.80
2018-06-19T18:03:34.586Z,3.00
2018-06-19T18:06:03.098Z,2.60
2018-06-19T18:08:31.847Z,3.03
2018-06-19T18:11:00.313Z,2.80
2018-06-19T18:13:28.855Z,2.90
2018-06-19T18:15:57.513Z,2.70
2018-06-19T18:18:25.985Z,2.70
2018-06-19T18:20:54.504Z,2.80
2018-06-19T18:23:22.966Z,2.90
2018-06-19T18:25:51.582Z,3.27
2018-06-19T18:28:20.178Z,3.30
2018-06-19T18:30:48.736Z,3.10
2018-06-19T18:33:17.275Z,3.30
2018-06-19T18:35:46.048Z,3.77
2018-06-19T18:38:15.162Z,3.23
2018-06-19T18:40:43.916Z,4.27
2018-06-19T18:43:12.622Z,2.97
2018-06-19T18:45:41.394Z,34.57
2018-06-19T18:48:10.108Z,3.90
2018-06-19T18:50:38.972Z,3.17
2018-06-19T18:53:08.047Z,3.10
2018-06-19T18:55:36.744Z,2.80
2018-06-19T18:58:05.417Z,3.27
2018-06-19T19:00:34.143Z,3.13
2018-06-19T19:03:02.887Z,3.47
2018-06-19T19:05:31.762Z,2.90
2018-06-19T19:08:00.312Z,3.00
2018-06-19T19:10:34.139Z,3.27
2018-06-19T19:13:02.877Z,2.93
2018-06-19T19:15:36.704Z,2.97
2018-06-19T19:18:11.718Z,3.83
2018-06-19T19:20:40.319Z,3.00
2018-06-19T19:23:08.864Z,2.90
2018-06-19T19:25:37.795Z,3.27
2018-06-19T19:28:11.903Z,2.80
2018-06-19T19:30:41.378Z,2.93
2018-06-19T19:33:10.009Z,3.40
2018-06-19T19:35:38.702Z,3.87
2018-06-19T19:38:12.934Z,4.23
2018-06-19T19:40:43.461Z,4.40
2018-06-19T19:43:12.358Z,4.43
2018-06-19T19:45:41.112Z,4.33
2018-06-19T19:48:15.414Z,4.50
2018-06-19T19:50:44.431Z,5.33
2018-06-19T19:53:13.172Z,5.00
2018-06-19T19:55:47.205Z,4.92
2018-06-19T19:58:21.825Z,4.50
2018-06-19T20:00:50.816Z,4.27
2018-06-19T20:03:20.569Z,4.27
2018-06-19T20:05:49.891Z,4.67
2018-06-19T20:08:20.768Z,4.47
2018-06-19T20:10:52.055Z,5.47
2018-06-19T20:13:22.687Z,5.63
2018-06-19T20:15:51.759Z,6.23
2018-06-19T20:18:20.861Z,5.20
2018-06-19T20:20:49.758Z,4.97
2018-06-19T20:23:18.589Z,5.57
2018-06-19T20:25:47.320Z,5.93
2018-06-19T20:28:15.968Z,5.90
2018-06-19T20:30:44.728Z,5.57
2018-06-19T20:33:13.230Z,5.93
2018-06-19T20:35:41.860Z,6.57
2018-06-19T20:38:10.528Z,6.90
2018-06-19T20:40:39.265Z,6.23
2018-06-19T20:43:08.080Z,5.80
2018-06-19T20:45:37.378Z,5.70
2018-06-19T20:48:06.040Z,5.57
2018-06-19T20:50:34.656Z,5.73
2018-06-19T20:53:03.147Z,5.97
2018-06-19T20:55:31.708Z,5.80
2018-06-19T20:58:01.203Z,5.93
2018-06-19T21:00:33.039Z,6.10
2018-06-19T21:03:03.312Z,5.57
2018-06-19T21:05:32.123Z,5.62
2018-06-19T21:08:00.726Z,5.57
2018-06-19T21:10:30.400Z,5.70
2018-06-19T21:12:58.996Z,5.73
2018-06-19T21:15:27.506Z,5.27
2018-06-19T21:17:56.024Z,5.67
2018-06-19T21:20:25.022Z,5.63
2018-06-19T21:22:53.553Z,5.63
2018-06-19T21:25:22.137Z,5.53
2018-06-19T21:27:50.636Z,5.87
2018-06-19T21:30:19.318Z,5.50
2018-06-19T21:32:47.907Z,5.43
2018-06-19T21:35:16.444Z,5.70
2018-06-19T21:37:45.080Z,5.67
2018-06-19T21:40:13.653Z,5.23
2018-06-19T21:42:42.098Z,4.70
2018-06-19T21:45:10.652Z,5.13
2018-06-19T21:47:39.262Z,5.67
2018-06-19T21:50:07.943Z,5.60
2018-06-19T21:52:36.547Z,5.90
2018-06-19T21:55:05.055Z,5.60
2018-06-19T21:57:33.557Z,5.17
2018-06-19T22:00:01.977Z,4.70
2018-06-19T22:02:32.720Z,4.90
2018-06-19T22:05:02.861Z,4.60
2018-06-19T22:07:31.642Z,4.63
2018-06-19T22:10:00.099Z,4.70
2018-06-19T22:12:28.563Z,4.50
2018-06-19T22:14:57.046Z,4.90
2018-06-19T22:17:25.508Z,4.20
2018-06-19T22:19:53.984Z,4.63
2018-06-19T22:22:22.596Z,3.87
2018-06-19T22:24:50.986Z,4.53
2018-06-19T22:27:19.422Z,4.80
2018-06-19T22:29:47.878Z,4.77
2018-06-19T22:32:16.386Z,4.20
2018-06-19T22:34:44.829Z,4.67
2018-06-19T22:37:13.265Z,5.00
2018-06-19T22:39:41.696Z,4.70
2018-06-19T22:42:10.199Z,5.23
2018-06-19T22:44:38.679Z,4.90
2018-06-19T22:47:07.140Z,5.03
2018-06-19T22:49:35.672Z,4.57
2018-06-19T22:52:04.170Z,4.80
2018-06-19T22:54:32.569Z,4.80
2018-06-19T22:57:00.989Z,5.30
2018-06-19T22:59:29.394Z,4.80
2018-06-19T23:01:57.861Z,4.70
2018-06-19T23:04:26.422Z,4.87
2018-06-19T23:06:54.886Z,4.80
2018-06-19T23:09:23.416Z,5.00
2018-06-19T23:11:51.889Z,4.83
2018-06-19T23:14:20.399Z,4.50
2018-06-19T23:16:48.828Z,4.13
2018-06-19T23:19:17.349Z,3.90
2018-06-19T23:21:45.788Z,4.57
2018-06-19T23:24:14.184Z,4.50
2018-06-19T23:26:42.632Z,4.80
2018-06-19T23:29:11.090Z,4.50
2018-06-19T23:31:39.565Z,4.77
2018-06-19T23:34:08.054Z,5.57
2018-06-19T23:36:36.158Z,5.53
2018-06-19T23:39:06.695Z,5.13
2018-06-19T23:41:35.205Z,5.43
2018-06-19T23:44:03.761Z,5.10
2018-06-19T23:46:32.269Z,5.17
2018-06-19T23:49:00.725Z,5.50
2018-06-19T23:51:29.167Z,5.57
2018-06-19T23:53:58.628Z,5.90
2018-06-19T23:56:27.135Z,6.10
2018-06-19T23:58:55.633Z,6.17
